Time;durP1;ratioP1;P1;durP2;ratioP2;P2;SDS_P1;SDS_P2;PMS_P1;PMS_P2;Temp;Humidity;BMP_temperature;BMP_pressure;BME280_temperature;BME280_humidity;BME280_pressure;Samples;Min_cycle;Max_cycle;Signal;HPM_P1;HPM_P2
2022/12/31 00:00:12;;;;;;;1.73;1.15;;;11.70;99.90;;;;;;4971561;28;20058;-78
2022/12/31 00:02:38;;;;;;;1.08;0.57;;;;;;;;;;4980547;28;20719;-77
2022/12/31 00:05:04;;;;;;;1.67;0.30;;;;;;;;;;4980534;28;20034;-78
2022/12/31 00:07:30;;;;;;;0.43;0.40;;;;;;;;;;4979502;28;20038;-79
2022/12/31 00:09:56;;;;;;;0.60;0.43;;;;;;;;;;4984153;28;20072;-81
2022/12/31 00:12:22;;;;;;;0.85;0.50;;;;;;;;;;4982720;28;20018;-82
2022/12/31 00:14:48;;;;;;;1.20;0.60;;;;;;;;;;4981749;28;20026;-77
2022/12/31 00:17:14;;;;;;;1.23;0.55;;;;;;;;;;4981590;28;20048;-81
2022/12/31 00:19:39;;;;;;;0.57;0.40;;;10.50;99.90;;;;;;4980663;28;20035;-78
2022/12/31 00:22:05;;;;;;;0.28;0.22;;;;;;;;;;4981096;28;20037;-79
2022/12/31 00:24:32;;;;;;;0.63;0.30;;;;;;;;;;4982932;28;20030;-79
2022/12/31 00:26:58;;;;;;;0.88;0.32;;;;;;;;;;4980019;28;20034;-82
2022/12/31 00:29:24;;;;;;;0.40;0.25;;;;;;;;;;4981203;28;20027;-81
2022/12/31 00:31:50;;;;;;;0.63;0.30;;;;;;;;;;4985417;28;20031;-81
2022/12/31 00:34:15;;;;;;;0.20;0.20;;;;;;;;;;4990034;28;20919;-77
2022/12/31 00:36:42;;;;;;;0.47;0.32;;;;;;;;;;4979717;28;20566;-77
2022/12/31 00:39:08;;;;;;;0.30;0.10;;;;;;;;;;4983233;28;20040;-79
2022/12/31 00:41:34;;;;;;;1.05;0.30;;;;;;;;;;4991285;28;20109;-79
2022/12/31 00:44:00;;;;;;;0.50;0.20;;;10.70;99.90;;;;;;4981667;28;20467;-79
2022/12/31 00:46:26;;;;;;;0.50;0.30;;;;;;;;;;4982759;28;20027;-81
2022/12/31 00:48:52;;;;;;;0.20;0.20;;;;;;;;;;4982172;28;20070;-82
2022/12/31 00:51:19;;;;;;;0.20;0.10;;;;;;;;;;4984539;28;20037;-79
2022/12/31 00:53:45;;;;;;;0.88;0.35;;;;;;;;;;4972975;28;20018;-82
2022/12/31 00:56:13;;;;;;;0.40;0.10;;;;;;;;;;4972946;28;20049;-81
2022/12/31 00:58:39;;;;;;;0.17;0.10;;;;;;;;;;4977882;28;20096;-81
2022/12/31 01:01:16;;;;;;;0.45;0.13;;;;;;;;;;4976731;28;20114;-80
2022/12/31 01:03:42;;;;;;;0.95;0.10;;;;;;;;;;4980139;28;20025;-79
2022/12/31 01:06:08;;;;;;;0.30;0.20;;;;;;;;;;4979090;28;20026;-82
2022/12/31 01:08:34;;;;;;;0.13;0.10;;;;;;;;;;4975278;28;20023;-81
2022/12/31 01:13:48;;;;;;;1.15;0.50;;;;;;;;;;4980128;28;20066;-79
2022/12/31 01:16:14;;;;;;;1.08;0.43;;;;;;;;;;4974837;28;20027;-80
2022/12/31 01:18:40;;;;;;;0.28;0.17;;;;;;;;;;4979557;28;20034;-81
2022/12/31 01:21:08;;;;;;;1.08;0.32;;;12.20;99.90;;;;;;4985879;28;20030;-82
2022/12/31 01:23:34;;;;;;;0.17;0.10;;;;;;;;;;4974657;28;20023;-78
2022/12/31 01:26:01;;;;;;;1.08;0.40;;;;;;;;;;4973294;28;20041;-80
2022/12/31 01:28:28;;;;;;;0.43;0.28;;;;;;;;;;4972823;28;20061;-79
2022/12/31 01:30:54;;;;;;;1.35;0.10;;;12.20;99.90;;;;;;4978442;28;20030;-80
2022/12/31 01:33:19;;;;;;;0.75;0.50;;;11.40;99.90;;;;;;4980271;28;20027;-80
2022/12/31 01:35:45;;;;;;;2.58;0.70;;;;;;;;;;4971799;28;20078;-81
2022/12/31 01:38:11;;;;;;;1.23;0.55;;;;;;;;;;4975522;28;20077;-81
2022/12/31 01:40:38;;;;;;;0.20;0.13;;;;;;;;;;4978178;28;20084;-82
2022/12/31 01:43:18;;;;;;;1.35;0.30;;;;;;;;;;4981160;28;20038;-80
2022/12/31 01:45:45;;;;;;;1.77;0.55;;;;;;;;;;4979026;28;20041;-79
2022/12/31 01:48:13;;;;;;;2.53;0.73;;;;;;;;;;4981287;28;20479;-80
2022/12/31 01:50:39;;;;;;;1.45;0.68;;;11.10;99.90;;;;;;4978574;28;20034;-82
2022/12/31 01:53:07;;;;;;;1.50;0.50;;;;;;;;;;4984638;28;20086;-77
2022/12/31 01:55:38;;;;;;;2.17;0.17;;;11.20;99.90;;;;;;4985684;28;20438;-83
2022/12/31 01:58:08;;;;;;;0.47;0.28;;;;;;;;;;4980447;28;20038;-80
2022/12/31 02:00:35;;;;;;;0.80;0.40;;;;;;;;;;4979119;28;20036;-79
2022/12/31 02:03:01;;;;;;;1.10;0.30;;;;;;;;;;4981407;28;20031;-81
2022/12/31 02:05:49;;;;;;;1.02;0.40;;;11.10;99.90;;;;;;4981543;28;20619;-79
2022/12/31 02:08:16;;;;;;;0.93;0.20;;;;;;;;;;4986707;28;20018;-82
2022/12/31 02:10:41;;;;;;;8.95;0.43;;;11.70;99.90;;;;;;4981671;28;20088;-80
2022/12/31 02:13:07;;;;;;;0.35;0.20;;;;;;;;;;4984099;28;20022;-81
2022/12/31 02:16:14;;;;;;;0.68;0.20;;;11.70;99.90;;;;;;4978388;28;20034;-78
2022/12/31 02:18:45;;;;;;;0.80;0.32;;;;;;;;;;4983395;28;20522;-79
2022/12/31 02:21:29;;;;;;;0.55;0.20;;;;;;;;;;4980430;28;20069;-79
2022/12/31 02:24:09;;;;;;;0.30;0.13;;;11.20;99.90;;;;;;4982628;28;20035;-79
2022/12/31 02:26:54;;;;;;;0.50;0.10;;;;;;;;;;4985970;28;20039;-80
2022/12/31 02:29:29;;;;;;;0.75;0.20;;;;;;;;;;4976969;28;20387;-79
2022/12/31 02:31:59;;;;;;;0.35;0.20;;;;;;;;;;4976247;28;20054;-79
2022/12/31 02:34:31;;;;;;;0.55;0.30;;;;;;;;;;4982979;28;20098;-81
2022/12/31 02:36:59;;;;;;;4.88;0.95;;;;;;;;;;4984301;28;20419;-77
2022/12/31 02:39:25;;;;;;;0.15;0.10;;;;;;;;;;4985149;28;20058;-81
2022/12/31 02:41:51;;;;;;;0.40;0.15;;;;;;;;;;4988642;28;20162;-80
2022/12/31 02:44:20;;;;;;;0.20;0.10;;;;;;;;;;4978756;28;20027;-82
2022/12/31 02:47:09;;;;;;;0.10;0.00;;;;;;;;;;4983235;28;20041;-78
2022/12/31 02:49:54;;;;;;;0.10;0.10;;;;;;;;;;4984009;28;20117;-81
2022/12/31 02:52:20;;;;;;;0.15;0.10;;;;;;;;;;4981879;28;20058;-81
2022/12/31 02:54:56;;;;;;;0.10;0.10;;;;;;;;;;4991081;28;20038;-79
2022/12/31 02:57:35;;;;;;;0.32;0.20;;;;;;;;;;4980834;28;20065;-81
2022/12/31 03:02:52;;;;;;;0.25;0.10;;;11.60;99.90;;;;;;4980492;28;20056;-81
2022/12/31 03:05:20;;;;;;;0.47;0.20;;;;;;;;;;4978185;28;20061;-81
2022/12/31 03:07:46;;;;;;;0.10;0.10;;;;;;;;;;4977367;28;20034;-79
2022/12/31 03:10:12;;;;;;;0.28;0.20;;;;;;;;;;4982494;28;21804;-77
2022/12/31 03:12:45;;;;;;;0.25;0.20;;;;;;;;;;4983242;28;20046;-84
2022/12/31 03:15:29;;;;;;;;;;;;;;;;;;4982709;28;20121;-79
2022/12/31 03:17:55;;;;;;;0.57;0.15;;;;;;;;;;4983980;28;19918;-78
2022/12/31 03:23:09;;;;;;;0.45;0.30;;;;;;;;;;4986777;28;20089;-81
2022/12/31 03:25:36;;;;;;;0.10;0.10;;;;;;;;;;4978792;28;20038;-80
2022/12/31 03:28:04;;;;;;;0.40;0.30;;;;;;;;;;4985694;28;20057;-81
2022/12/31 03:30:31;;;;;;;0.30;0.10;;;10.50;99.90;;;;;;4988216;28;20096;-78
2022/12/31 03:32:57;;;;;;;0.30;0.10;;;10.30;99.90;;;;;;4980700;28;20722;-79
2022/12/31 03:35:24;;;;;;;0.28;0.10;;;10.40;99.90;;;;;;4979413;28;20126;-79
2022/12/31 03:37:51;;;;;;;0.10;0.10;;;;;;;;;;4983693;28;20058;-81
2022/12/31 03:40:18;;;;;;;0.32;0.20;;;;;;;;;;4976285;28;20035;-80
2022/12/31 03:42:44;;;;;;;0.20;0.20;;;;;;;;;;4981144;28;20033;-81
2022/12/31 03:45:10;;;;;;;0.20;0.20;;;;;;;;;;4983335;28;20430;-78
2022/12/31 03:47:36;;;;;;;0.60;0.30;;;10.20;99.90;;;;;;4976822;28;20104;-81
2022/12/31 03:50:03;;;;;;;0.90;0.30;;;10.70;99.90;;;;;;4983924;28;20407;-80
2022/12/31 03:52:29;;;;;;;0.15;0.15;;;;;;;;;;4982064;28;20109;-80
2022/12/31 03:54:55;;;;;;;0.30;0.20;;;;;;;;;;4979782;28;20760;-82
2022/12/31 03:57:21;;;;;;;1.40;0.38;;;;;;;;;;4979141;28;20034;-80
2022/12/31 03:59:47;;;;;;;0.28;0.10;;;;;;;;;;4975784;28;20559;-81
2022/12/31 04:02:13;;;;;;;0.95;0.50;;;;;;;;;;4975444;28;20030;-81
2022/12/31 04:04:39;;;;;;;1.17;0.30;;;;;;;;;;4980864;28;20057;-80
2022/12/31 04:07:05;;;;;;;0.52;0.20;;;;;;;;;;4984885;28;20112;-82
2022/12/31 04:09:31;;;;;;;3.53;0.30;;;;;;;;;;4974183;28;20030;-79
2022/12/31 04:11:57;;;;;;;0.20;0.15;;;;;;;;;;4974794;28;20031;-79
2022/12/31 04:14:23;;;;;;;1.38;0.30;;;;;;;;;;4975053;28;22152;-81
2022/12/31 04:16:48;;;;;;;0.57;0.28;;;;;;;;;;4980337;28;20026;-81
2022/12/31 04:19:14;;;;;;;1.20;0.32;;;;;;;;;;4985467;28;20038;-80
2022/12/31 04:21:40;;;;;;;0.55;0.28;;;;;;;;;;4984933;28;20660;-82
2022/12/31 04:24:07;;;;;;;1.35;0.60;;;;;;;;;;4976565;28;20033;-80
2022/12/31 04:26:33;;;;;;;1.48;0.60;;;;;;;;;;4981769;28;20048;-80
2022/12/31 04:28:59;;;;;;;5.00;2.47;;;;;;;;;;4979087;28;20049;-81
2022/12/31 04:31:26;;;;;;;3.53;1.30;;;;;;;;;;4979455;28;20106;-78
2022/12/31 04:33:52;;;;;;;2.65;1.00;;;;;;;;;;4981514;28;20030;-80
2022/12/31 04:36:18;;;;;;;4.53;1.98;;;;;;;;;;4981888;28;20041;-78
2022/12/31 04:38:43;;;;;;;4.35;1.98;;;10.60;99.90;;;;;;4977699;28;20156;-81
2022/12/31 04:41:15;;;;;;;4.53;2.65;;;;;;;;;;4975220;28;20508;-80
2022/12/31 04:43:45;;;;;;;2.58;1.55;;;10.70;99.90;;;;;;4980618;28;20046;-78
2022/12/31 04:46:11;;;;;;;1.33;0.60;;;;;;;;;;4977806;28;20057;-79
2022/12/31 04:48:37;;;;;;;1.25;0.40;;;;;;;;;;4978395;28;20065;-78
2022/12/31 04:51:03;;;;;;;0.30;0.20;;;;;;;;;;4979281;28;20093;-81
2022/12/31 04:53:29;;;;;;;3.08;1.48;;;;;;;;;;4978043;28;20117;-78
2022/12/31 04:55:55;;;;;;;3.15;1.52;;;;;;;;;;4985274;28;20034;-80
2022/12/31 04:58:22;;;;;;;1.65;1.02;;;;;;;;;;4983183;28;20026;-80
2022/12/31 05:00:53;;;;;;;2.80;1.10;;;;;;;;;;4979727;28;20042;-82
2022/12/31 05:03:19;;;;;;;4.03;1.92;;;;;;;;;;4977386;28;20170;-81
2022/12/31 05:05:45;;;;;;;3.40;1.70;;;;;;;;;;4975635;28;21119;-80
2022/12/31 05:08:12;;;;;;;2.22;1.45;;;11.00;99.90;;;;;;4980999;28;20025;-78
2022/12/31 05:10:45;;;;;;;2.67;1.23;;;11.00;99.90;;;;;;4985558;28;20421;-79
2022/12/31 05:13:10;;;;;;;;;;;10.80;99.90;;;;;;4980683;28;20700;-79
2022/12/31 05:15:36;;;;;;;3.53;1.00;;;;;;;;;;4975953;28;19914;-80
2022/12/31 05:18:03;;;;;;;1.33;0.50;;;;;;;;;;4978408;28;20491;-81
2022/12/31 05:20:29;;;;;;;2.00;1.05;;;;;;;;;;4980656;28;20042;-81
2022/12/31 05:22:55;;;;;;;0.68;0.47;;;;;;;;;;4981039;28;20022;-81
2022/12/31 05:25:21;;;;;;;0.55;0.32;;;;;;;;;;4980263;28;20035;-81
2022/12/31 05:27:47;;;;;;;4.28;0.38;;;;;;;;;;4988256;28;20097;-79
2022/12/31 05:30:13;;;;;;;4.32;1.58;;;;;;;;;;4980767;28;20023;-81
2022/12/31 05:32:39;;;;;;;6.13;2.17;;;;;;;;;;4983999;28;20031;-81
2022/12/31 05:35:06;;;;;;;10.45;3.28;;;10.80;99.90;;;;;;4982122;28;20039;-81
2022/12/31 05:37:32;;;;;;;9.98;5.00;;;;;;;;;;4975312;28;20052;-79
2022/12/31 05:39:57;;;;;;;7.32;1.85;;;11.00;99.90;;;;;;4977414;28;20046;-77
2022/12/31 05:42:23;;;;;;;0.68;0.55;;;;;;;;;;4985061;28;20035;-81
2022/12/31 05:44:49;;;;;;;3.30;1.25;;;;;;;;;;4982371;28;20034;-80
2022/12/31 05:47:15;;;;;;;15.80;7.65;;;;;;;;;;4982410;28;20026;-78
2022/12/31 05:49:41;;;;;;;11.80;4.82;;;11.00;99.90;;;;;;4986522;28;20034;-80
2022/12/31 05:52:07;;;;;;;8.98;4.32;;;;;;;;;;4979630;28;20372;-79
2022/12/31 05:54:33;;;;;;;6.60;3.35;;;;;;;;;;4989384;28;20039;-81
2022/12/31 05:56:59;;;;;;;6.95;4.32;;;;;;;;;;4979887;28;20423;-78
2022/12/31 05:59:25;;;;;;;7.65;2.20;;;;;;;;;;4979655;28;20121;-79
2022/12/31 06:01:51;;;;;;;3.70;2.28;;;;;;;;;;4985589;28;20585;-80
2022/12/31 06:04:17;;;;;;;3.60;1.63;;;;;;;;;;4981914;28;20049;-79
2022/12/31 06:06:43;;;;;;;3.63;1.60;;;;;;;;;;4983712;28;20034;-78
2022/12/31 06:09:09;;;;;;;1.80;0.80;;;;;;;;;;4977365;28;20023;-78
2022/12/31 06:11:35;;;;;;;1.67;0.75;;;;;;;;;;4981029;28;20122;-79
2022/12/31 06:14:01;;;;;;;0.52;0.20;;;;;;;;;;4980604;28;20050;-81
2022/12/31 06:16:27;;;;;;;5.45;2.13;;;;;;;;;;4977372;28;20054;-78
2022/12/31 06:18:53;;;;;;;6.25;2.45;;;;;;;;;;4980592;28;20034;-80
2022/12/31 06:21:19;;;;;;;4.15;1.70;;;;;;;;;;4986599;28;20036;-82
2022/12/31 06:23:45;;;;;;;4.22;1.67;;;;;;;;;;4975703;28;20031;-80
2022/12/31 06:26:11;;;;;;;2.88;1.15;;;11.90;99.90;;;;;;4977402;28;20050;-79
2022/12/31 06:28:37;;;;;;;2.97;1.17;;;;;;;;;;4981370;28;20065;-80
2022/12/31 06:31:04;;;;;;;2.50;1.27;;;;;;;;;;4981366;28;20027;-82
2022/12/31 06:33:31;;;;;;;1.15;0.50;;;;;;;;;;4982014;28;20098;-79
2022/12/31 06:36:01;;;;;;;1.35;0.63;;;;;;;;;;4977945;28;20046;-80
2022/12/31 06:38:28;;;;;;;1.90;0.50;;;;;;;;;;4980154;28;20042;-81
2022/12/31 06:40:53;;;;;;;2.60;1.38;;;11.70;99.90;;;;;;4975628;28;20034;-78
2022/12/31 06:43:19;;;;;;;3.70;1.42;;;;;;;;;;4985561;28;20083;-82
2022/12/31 06:45:45;;;;;;;15.50;5.60;;;11.80;99.90;;;;;;4980792;28;20031;-78
2022/12/31 06:48:11;;;;;;;13.98;5.15;;;;;;;;;;4990202;28;20023;-82
2022/12/31 06:50:37;;;;;;;22.70;8.23;;;;;;;;;;4980927;28;20026;-80
2022/12/31 06:53:03;;;;;;;14.80;6.13;;;;;;;;;;4986254;28;20135;-81
2022/12/31 06:55:29;;;;;;;13.80;5.53;;;;;;;;;;4989845;28;20033;-80
2022/12/31 06:57:56;;;;;;;13.82;5.97;;;;;;;;;;4977308;28;20063;-78
2022/12/31 07:00:22;;;;;;;15.60;5.63;;;;;;;;;;4982676;28;20045;-79
2022/12/31 07:02:53;;;;;;;10.45;4.13;;;;;;;;;;4975113;28;20682;-83
2022/12/31 07:05:32;;;;;;;10.25;3.90;;;;;;;;;;4991008;28;20117;-79
2022/12/31 07:08:19;;;;;;;11.98;4.28;;;;;;;;;;4989022;28;20034;-81
2022/12/31 07:10:52;;;;;;;12.93;4.70;;;;;;;;;;4976734;28;20072;-80
2022/12/31 07:13:37;;;;;;;18.02;6.20;;;;;;;;;;4984528;28;20030;-84
2022/12/31 07:16:14;;;;;;;16.10;5.70;;;11.50;99.90;;;;;;4981249;28;20026;-80
2022/12/31 07:18:44;;;;;;;13.52;5.40;;;11.90;99.90;;;;;;4977618;28;20039;-81
2022/12/31 07:21:15;;;;;;;13.55;5.75;;;11.10;99.90;;;;;;4980653;28;20113;-83
2022/12/31 07:23:42;;;;;;;14.55;6.13;;;;;;;;;;4986910;28;20096;-84
2022/12/31 07:26:18;;;;;;;11.13;5.53;;;;;;;;;;4979098;28;20041;-79
2022/12/31 07:28:55;;;;;;;8.88;4.38;;;12.40;99.90;;;;;;4976000;28;20046;-84
2022/12/31 07:31:33;;;;;;;9.30;4.25;;;;;;;;;;5018347;28;20506;-82
2022/12/31 07:34:07;;;;;;;13.65;4.30;;;11.30;99.90;;;;;;4974228;28;20030;-83
2022/12/31 07:37:04;;;;;;;9.18;3.78;;;11.40;99.90;;;;;;4984937;28;20034;-83
2022/12/31 07:39:33;;;;;;;16.05;6.57;;;;;;;;;;4977060;28;20123;-83
2022/12/31 07:42:12;;;;;;;13.27;5.53;;;;;;;;;;4983755;28;20031;-82
2022/12/31 07:44:55;;;;;;;14.60;5.95;;;12.50;99.90;;;;;;4985343;28;20101;-79
2022/12/31 07:47:23;;;;;;;8.70;3.03;;;12.40;99.90;;;;;;4973777;28;20030;-79
2022/12/31 07:49:50;;;;;;;1.45;0.70;;;12.40;99.90;;;;;;4978728;28;20525;-84
2022/12/31 07:52:16;;;;;;;1.52;0.60;;;;;;;;;;4983835;28;20038;-84
2022/12/31 07:54:42;;;;;;;4.60;2.15;;;;;;;;;;4981889;28;20029;-82
2022/12/31 07:57:11;;;;;;;1.98;1.05;;;;;;;;;;4982178;28;20026;-80
2022/12/31 07:59:48;;;;;;;2.17;0.70;;;11.90;99.90;;;;;;4975671;28;20043;-79
2022/12/31 08:02:29;;;;;;;5.00;1.98;;;;;;;;;;4976595;28;20031;-81
2022/12/31 08:05:14;;;;;;;3.25;1.35;;;;;;;;;;4978606;28;20031;-80
2022/12/31 08:07:43;;;;;;;1.73;1.10;;;;;;;;;;4979766;28;20053;-80
2022/12/31 08:10:23;;;;;;;2.67;1.40;;;;;;;;;;4977549;28;20648;-78
2022/12/31 08:12:49;;;;;;;3.17;1.98;;;;;;;;;;4986760;28;20058;-79
2022/12/31 08:15:16;;;;;;;4.85;2.10;;;;;;;;;;4980449;28;20042;-81
2022/12/31 08:17:42;;;;;;;4.97;1.27;;;12.70;99.90;;;;;;4972337;28;20031;-83
2022/12/31 08:20:16;;;;;;;0.93;0.60;;;13.00;99.90;;;;;;4978901;28;20427;-80
2022/12/31 08:22:46;;;;;;;1.63;0.47;;;;;;;;;;4980445;28;20114;-81
2022/12/31 08:25:19;;;;;;;1.67;0.35;;;;;;;;;;4973036;28;20043;-82
2022/12/31 08:28:03;;;;;;;1.55;0.57;;;;;;;;;;4975022;28;20034;-80
2022/12/31 08:30:54;;;;;;;2.83;1.10;;;12.70;99.90;;;;;;4971729;28;20187;-81
2022/12/31 08:33:27;;;;;;;1.00;0.75;;;;;;;;;;4979506;28;20038;-80
2022/12/31 08:35:55;;;;;;;0.73;0.45;;;13.60;99.90;;;;;;4976170;28;20081;-81
2022/12/31 08:38:49;;;;;;;1.50;0.50;;;13.40;99.90;;;;;;4974328;28;20042;-79
2022/12/31 08:41:41;;;;;;;1.23;0.40;;;13.20;99.90;;;;;;4973679;28;20054;-85
2022/12/31 08:44:35;;;;;;;0.80;0.47;;;13.20;99.90;;;;;;4980127;28;20030;-82
2022/12/31 08:47:19;;;;;;;1.00;0.20;;;;;;;;;;4971172;28;20038;-79
2022/12/31 08:49:45;;;;;;;2.55;0.77;;;;;;;;;;4972127;28;20041;-81
2022/12/31 08:52:15;;;;;;;5.38;1.83;;;;;;;;;;4976433;28;20022;-82
2022/12/31 08:54:41;;;;;;;2.88;1.20;;;;;;;;;;4979272;28;20045;-86
2022/12/31 08:57:22;;;;;;;4.10;1.10;;;;;;;;;;4973037;28;20117;-80
2022/12/31 09:00:12;;;;;;;0.73;0.50;;;13.50;99.90;;;;;;4974604;28;21338;-80
2022/12/31 09:03:05;;;;;;;2.60;1.30;;;13.70;99.90;;;;;;4977427;28;20391;-79
2022/12/31 09:05:31;;;;;;;1.10;0.60;;;;;;;;;;4970844;28;20030;-79
2022/12/31 09:08:12;;;;;;;1.15;0.47;;;13.90;99.90;;;;;;4971693;28;20169;-81
2022/12/31 09:10:57;;;;;;;2.35;1.15;;;13.90;99.90;;;;;;4973739;28;20046;-79
2022/12/31 09:13:31;;;;;;;4.40;2.00;;;14.30;99.90;;;;;;4977447;28;20049;-81
2022/12/31 09:16:17;;;;;;;0.82;0.52;;;14.40;99.90;;;;;;4974166;28;20125;-80
2022/12/31 09:18:43;;;;;;;3.85;0.70;;;;;;;;;;4982399;28;20033;-86
2022/12/31 09:21:11;;;;;;;1.33;0.43;;;;;;;;;;4986198;28;20030;-82
2022/12/31 09:23:37;;;;;;;0.63;0.30;;;;;;;;;;4981014;28;20541;-80
2022/12/31 09:26:26;;;;;;;1.17;0.70;;;;;;;;;;4978321;28;20054;-79
2022/12/31 09:29:01;;;;;;;6.22;2.33;;;;;;;;;;4973592;28;20034;-83
2022/12/31 09:31:30;;;;;;;2.15;0.32;;;;;;;;;;4977341;28;20479;-80
2022/12/31 09:34:06;;;;;;;0.57;0.28;;;;;;;;;;4980412;28;20046;-81
2022/12/31 09:36:38;;;;;;;3.90;0.57;;;;;;;;;;4980949;28;20042;-78
2022/12/31 09:39:39;;;;;;;0.93;0.40;;;14.60;99.90;;;;;;4976215;28;20042;-82
2022/12/31 09:42:24;;;;;;;0.50;0.20;;;15.00;99.90;;;;;;4967205;28;20049;-81
2022/12/31 09:45:09;;;;;;;0.20;0.20;;;;;;;;;;4976108;28;20030;-82
2022/12/31 09:48:08;;;;;;;4.15;0.30;;;15.30;99.90;;;;;;4972085;28;20046;-79
2022/12/31 09:51:12;;;;;;;0.82;0.30;;;15.50;99.90;;;;;;4981798;28;20046;-81
2022/12/31 09:53:40;;;;;;;1.10;0.60;;;;;;;;;;4956271;28;20042;-80
2022/12/31 09:56:15;;;;;;;3.70;1.27;;;;;;;;;;4975771;28;20509;-83
2022/12/31 09:58:59;;;;;;;0.90;0.25;;;;;;;;;;4979936;28;20129;-81
2022/12/31 10:01:43;;;;;;;1.85;0.35;;;;;;;;;;4980889;28;20692;-82
2022/12/31 10:04:21;;;;;;;0.40;0.20;;;;;;;;;;4967968;28;20100;-81
2022/12/31 10:06:59;;;;;;;0.20;0.20;;;;;;;;;;4979652;28;20175;-81
2022/12/31 10:09:45;;;;;;;1.67;0.40;;;14.80;99.90;;;;;;4970793;28;20089;-79
2022/12/31 10:12:11;;;;;;;0.28;0.28;;;;;;;;;;4980130;28;20439;-79
2022/12/31 10:14:40;;;;;;;0.88;0.30;;;15.10;99.90;;;;;;4972296;28;20095;-82
2022/12/31 10:17:17;;;;;;;1.55;0.15;;;;;;;;;;4978180;28;20642;-80
2022/12/31 10:19:52;;;;;;;0.68;0.50;;;;;;;;;;4981286;28;20030;-81
2022/12/31 10:22:56;;;;;;;0.43;0.10;;;15.80;99.90;;;;;;4986701;28;20027;-83
2022/12/31 10:25:41;;;;;;;0.32;0.20;;;;;;;;;;4988910;28;20090;-82
2022/12/31 10:28:34;;;;;;;1.55;0.28;;;15.30;99.90;;;;;;4994785;28;20552;-82
2022/12/31 10:31:16;;;;;;;1.25;0.40;;;15.70;99.90;;;;;;4987072;28;20323;-80
2022/12/31 10:33:50;;;;;;;4.07;0.60;;;;;;;;;;4991145;28;20034;-82
2022/12/31 10:36:43;;;;;;;0.88;0.32;;;;;;;;;;4987404;28;20645;-81
2022/12/31 10:39:09;;;;;;;0.40;0.20;;;;;;;;;;4987728;28;20121;-82
2022/12/31 10:41:56;;;;;;;0.40;0.22;;;16.00;99.90;;;;;;4983737;28;20499;-82
2022/12/31 10:44:27;;;;;;;0.50;0.35;;;16.00;99.90;;;;;;4983607;28;20027;-80
2022/12/31 10:47:02;;;;;;;0.40;0.30;;;16.50;99.90;;;;;;4984106;28;20045;-80
2022/12/31 10:49:47;;;;;;;5.32;0.20;;;;;;;;;;4990258;28;20034;-79
2022/12/31 10:52:45;;;;;;;0.47;0.20;;;;;;;;;;4998647;28;20027;-81
2022/12/31 10:55:11;;;;;;;3.45;0.50;;;;;;;;;;4951446;28;20101;-83
2022/12/31 10:57:37;;;;;;;1.23;0.30;;;;;;;;;;4981807;28;20145;-80
2022/12/31 11:00:09;;;;;;;0.90;0.43;;;;;;;;;;4985923;28;20046;-78
2022/12/31 11:02:50;;;;;;;2.30;0.35;;;;;;;;;;4983638;28;20085;-79
2022/12/31 11:05:47;;;;;;;1.42;0.70;;;15.90;99.90;;;;;;4970589;28;20130;-82
2022/12/31 11:08:25;;;;;;;0.70;0.40;;;;;;;;;;4963159;28;20034;-81
2022/12/31 11:10:51;;;;;;;1.15;0.50;;;;;;;;;;4957850;28;20058;-83
2022/12/31 11:13:34;;;;;;;1.08;0.40;;;16.00;99.90;;;;;;4948973;28;20501;-85
2022/12/31 11:16:30;;;;;;;1.33;0.50;;;15.70;99.90;;;;;;4968527;28;20042;-81
2022/12/31 11:19:19;;;;;;;0.98;0.63;;;16.90;99.90;;;;;;4976446;28;20042;-83
2022/12/31 11:22:17;;;;;;;0.22;0.10;;;16.40;99.90;;;;;;4979822;28;20062;-81
2022/12/31 11:24:42;;;;;;;1.80;0.55;;;;;;;;;;4984338;28;20030;-81
2022/12/31 11:27:27;;;;;;;0.40;0.17;;;16.50;99.90;;;;;;4981609;28;20037;-84
2022/12/31 11:30:20;;;;;;;0.25;0.17;;;16.70;99.90;;;;;;4978699;28;20062;-81
2022/12/31 11:33:05;;;;;;;0.10;0.10;;;;;;;;;;4978387;28;20081;-78
2022/12/31 11:36:09;;;;;;;0.98;0.30;;;16.60;99.90;;;;;;4977729;28;20137;-83
2022/12/31 11:38:44;;;;;;;2.13;0.40;;;16.50;99.90;;;;;;4960167;28;20516;-82
2022/12/31 11:41:30;;;;;;;1.38;0.35;;;;;;;;;;4978589;28;20035;-81
2022/12/31 11:44:25;;;;;;;0.68;0.20;;;16.20;99.90;;;;;;4975357;28;20113;-83
2022/12/31 11:46:56;;;;;;;1.23;0.47;;;16.30;99.90;;;;;;4979508;28;20057;-78
2022/12/31 11:49:30;;;;;;;0.55;0.28;;;15.90;99.90;;;;;;4980142;28;20042;-83
2022/12/31 11:52:19;;;;;;;1.92;0.20;;;;;;;;;;4978350;28;20054;-84
2022/12/31 11:55:21;;;;;;;0.40;0.20;;;16.70;99.90;;;;;;4982878;28;20273;-83
2022/12/31 11:57:51;;;;;;;1.75;0.28;;;16.40;99.90;;;;;;4968523;28;20057;-83
2022/12/31 12:00:19;;;;;;;0.73;0.20;;;;;;;;;;4969748;28;20038;-80
2022/12/31 12:02:46;;;;;;;0.90;0.20;;;;;;;;;;4979388;28;20027;-82
2022/12/31 12:05:14;;;;;;;0.95;0.20;;;;;;;;;;4970628;28;20832;-81
2022/12/31 12:07:40;;;;;;;0.88;0.22;;;;;;;;;;4962283;28;20023;-83
2022/12/31 12:10:36;;;;;;;0.25;0.00;;;16.80;99.90;;;;;;4955901;28;20565;-83
2022/12/31 12:13:10;;;;;;;0.10;0.10;;;;;;;;;;4964122;28;20030;-83
2022/12/31 12:15:36;;;;;;;1.48;0.43;;;;;;;;;;4956734;28;20133;-83
2022/12/31 12:18:12;;;;;;;1.45;0.20;;;;;;;;;;4963883;28;20035;-84
2022/12/31 12:20:39;;;;;;;1.95;0.13;;;;;;;;;;4955741;28;20057;-86
2022/12/31 12:23:24;;;;;;;0.57;0.15;;;;;;;;;;4956534;28;20118;-83
2022/12/31 12:25:50;;;;;;;0.40;0.20;;;;;;;;;;4961388;28;20849;-83
2022/12/31 12:28:39;;;;;;;0.55;0.38;;;16.70;99.90;;;;;;4979051;28;20045;-79
2022/12/31 12:31:05;;;;;;;2.58;0.35;;;;;;;;;;4974134;28;20046;-81
2022/12/31 12:33:43;;;;;;;5.78;0.40;;;16.70;99.90;;;;;;4983377;28;20033;-82
2022/12/31 12:36:11;;;;;;;0.43;0.10;;;;;;;;;;4979606;28;21059;-83
2022/12/31 12:38:37;;;;;;;0.10;0.10;;;;;;;;;;4973625;28;20033;-83
2022/12/31 12:41:06;;;;;;;0.85;0.30;;;16.70;99.90;;;;;;4976260;28;20030;-80
2022/12/31 12:43:33;;;;;;;0.13;0.10;;;;;;;;;;4981745;28;20042;-81
2022/12/31 12:46:04;;;;;;;0.10;0.10;;;;;;;;;;4980424;28;20047;-83
2022/12/31 12:48:37;;;;;;;0.38;0.10;;;16.10;99.90;;;;;;4983094;28;20049;-83
2022/12/31 12:51:13;;;;;;;0.88;0.30;;;;;;;;;;4981149;28;20081;-81
2022/12/31 12:53:54;;;;;;;0.40;0.20;;;16.30;99.90;;;;;;4985627;28;20086;-83
2022/12/31 12:56:48;;;;;;;1.20;0.70;;;16.00;99.90;;;;;;4981221;28;20433;-84
2022/12/31 12:59:31;;;;;;;0.35;0.30;;;;;;;;;;4984910;28;20035;-82
2022/12/31 13:02:03;;;;;;;;;;;16.60;99.90;;;;;;4980482;28;20174;-83
2022/12/31 13:04:59;;;;;;;0.20;0.10;;;16.00;99.90;;;;;;4979774;28;19914;-83
2022/12/31 13:07:54;;;;;;;3.38;0.10;;;15.50;99.90;;;;;;4983708;28;20140;-82
2022/12/31 13:10:28;;;;;;;0.80;0.52;;;16.00;99.90;;;;;;4986414;28;20046;-82
2022/12/31 13:13:28;;;;;;;0.45;0.20;;;16.50;99.90;;;;;;4982051;28;20038;-82
2022/12/31 13:16:15;;;;;;;0.68;0.25;;;16.20;99.90;;;;;;4974204;28;20109;-81
2022/12/31 13:18:46;;;;;;;1.38;0.50;;;16.50;99.90;;;;;;4984767;28;20046;-82
2022/12/31 13:21:47;;;;;;;2.45;0.10;;;16.20;99.90;;;;;;4975722;28;20027;-82
2022/12/31 13:24:28;;;;;;;1.88;0.75;;;16.80;99.90;;;;;;4964235;28;20037;-83
2022/12/31 13:27:24;;;;;;;0.47;0.30;;;16.50;99.90;;;;;;4972696;28;20042;-82
2022/12/31 13:29:53;;;;;;;2.92;0.45;;;16.40;99.90;;;;;;4978083;28;20049;-79
2022/12/31 13:32:28;;;;;;;0.47;0.20;;;16.40;99.90;;;;;;4972277;28;20023;-83
2022/12/31 13:35:14;;;;;;;0.82;0.30;;;16.40;99.90;;;;;;4971262;28;20232;-83
2022/12/31 13:37:40;;;;;;;0.45;0.17;;;;;;;;;;4985207;28;20030;-84
2022/12/31 13:40:20;;;;;;;0.50;0.00;;;15.40;99.90;;;;;;4981334;28;20578;-83
2022/12/31 13:42:55;;;;;;;3.22;0.30;;;16.20;99.90;;;;;;4981221;28;20495;-81
2022/12/31 13:45:30;;;;;;;0.63;0.20;;;15.40;99.90;;;;;;4975059;28;20069;-84
2022/12/31 13:48:04;;;;;;;1.40;0.35;;;16.30;99.90;;;;;;4980079;28;20026;-81
2022/12/31 13:50:38;;;;;;;3.30;0.20;;;15.50;99.90;;;;;;4977457;28;20022;-85
2022/12/31 13:53:16;;;;;;;0.98;0.40;;;15.10;99.90;;;;;;4981356;28;20041;-82
2022/12/31 13:55:45;;;;;;;3.70;0.40;;;;;;;;;;4971217;28;20031;-81
2022/12/31 13:58:26;;;;;;;0.68;0.20;;;;;;;;;;4984167;28;20058;-80
2022/12/31 14:01:22;;;;;;;0.00;0.00;;;15.40;99.90;;;;;;4978126;28;20074;-81
2022/12/31 14:03:59;;;;;;;1.40;0.10;;;;;;;;;;4975776;28;20038;-83
2022/12/31 14:06:40;;;;;;;0.60;0.15;;;15.80;99.90;;;;;;4984952;28;20035;-82
2022/12/31 14:09:07;;;;;;;0.20;0.15;;;;;;;;;;4985108;28;20058;-80
2022/12/31 14:11:51;;;;;;;0.35;0.20;;;14.80;99.90;;;;;;4986320;28;20574;-83
2022/12/31 14:14:51;;;;;;;0.50;0.20;;;14.80;99.90;;;;;;4985733;28;20092;-83
2022/12/31 14:17:22;;;;;;;0.20;0.17;;;14.50;99.90;;;;;;4967251;28;20054;-82
2022/12/31 14:20:22;;;;;;;1.52;0.10;;;14.70;99.90;;;;;;4981388;28;20090;-82
2022/12/31 14:23:17;;;;;;;0.90;0.25;;;14.70;99.90;;;;;;4987388;28;20447;-84
2022/12/31 14:25:59;;;;;;;4.85;0.40;;;14.40;99.90;;;;;;4975915;28;20090;-79
2022/12/31 14:28:46;;;;;;;1.92;0.40;;;14.70;99.90;;;;;;4988569;28;20031;-82
2022/12/31 14:31:34;;;;;;;3.30;0.40;;;15.40;99.90;;;;;;4986314;28;20212;-79
2022/12/31 14:34:35;;;;;;;0.47;0.28;;;14.60;99.90;;;;;;4982183;28;20064;-84
2022/12/31 14:37:36;;;;;;;2.58;0.50;;;15.20;99.90;;;;;;4980630;28;20521;-81
2022/12/31 14:40:22;;;;;;;3.47;0.75;;;;;;;;;;4971314;28;20049;-86
2022/12/31 14:43:07;;;;;;;2.53;0.95;;;;;;;;;;4979131;28;20034;-81